sensor_id;sensor_type;location;lat;lon;timestamp;P1;durP1;ratioP1;P2;durP2;ratioP2
43184;SDS011;28803;52.308;19.096;2023-03-01T00:01:13;74.07;;;27.73;;
43184;SDS011;28803;52.308;19.096;2023-03-01T00:03:42;71.18;;;27.00;;
43184;SDS011;28803;52.308;19.096;2023-03-01T00:06:10;75.15;;;28.73;;
43184;SDS011;28803;52.308;19.096;2023-03-01T00:08:37;71.82;;;27.17;;
43184;SDS011;28803;52.308;19.096;2023-03-01T00:11:24;78.68;;;27.95;;
43184;SDS011;28803;52.308;19.096;2023-03-01T00:13:55;68.68;;;25.55;;
43184;SDS011;28803;52.308;19.096;2023-03-01T00:16:25;80.05;;;26.92;;
43184;SDS011;28803;52.308;19.096;2023-03-01T00:18:58;64.38;;;24.42;;
43184;SDS011;28803;52.308;19.096;2023-03-01T00:21:25;65.90;;;24.13;;
43184;SDS011;28803;52.308;19.096;2023-03-01T00:23:54;68.20;;;26.25;;
43184;SDS011;28803;52.308;19.096;2023-03-01T00:26:22;54.30;;;22.25;;
43184;SDS011;28803;52.308;19.096;2023-03-01T00:28:50;48.80;;;21.90;;
43184;SDS011;28803;52.308;19.096;2023-03-01T00:31:19;50.78;;;20.00;;
43184;SDS011;28803;52.308;19.096;2023-03-01T00:33:48;54.63;;;20.80;;
43184;SDS011;28803;52.308;19.096;2023-03-01T00:36:18;56.08;;;22.35;;
43184;SDS011;28803;52.308;19.096;2023-03-01T00:38:46;58.78;;;22.08;;
43184;SDS011;28803;52.308;19.096;2023-03-01T00:41:14;52.45;;;22.33;;
43184;SDS011;28803;52.308;19.096;2023-03-01T00:43:43;60.22;;;23.63;;
43184;SDS011;28803;52.308;19.096;2023-03-01T00:46:12;60.90;;;25.98;;
43184;SDS011;28803;52.308;19.096;2023-03-01T00:48:43;59.00;;;24.25;;
43184;SDS011;28803;52.308;19.096;2023-03-01T00:51:12;57.00;;;24.40;;
43184;SDS011;28803;52.308;19.096;2023-03-01T00:53:46;59.58;;;24.70;;
43184;SDS011;28803;52.308;19.096;2023-03-01T00:56:13;56.90;;;23.65;;
43184;SDS011;28803;52.308;19.096;2023-03-01T00:58:42;61.35;;;24.73;;
43184;SDS011;28803;52.308;19.096;2023-03-01T01:01:15;59.13;;;22.23;;
43184;SDS011;28803;52.308;19.096;2023-03-01T01:03:49;64.65;;;23.58;;
43184;SDS011;28803;52.308;19.096;2023-03-01T01:06:25;50.20;;;21.70;;
43184;SDS011;28803;52.308;19.096;2023-03-01T01:08:55;42.65;;;20.00;;
43184;SDS011;28803;52.308;19.096;2023-03-01T01:11:24;60.70;;;22.05;;
43184;SDS011;28803;52.308;19.096;2023-03-01T01:13:53;50.40;;;19.85;;
43184;SDS011;28803;52.308;19.096;2023-03-01T01:16:22;48.70;;;20.73;;
43184;SDS011;28803;52.308;19.096;2023-03-01T01:18:50;51.65;;;21.38;;
43184;SDS011;28803;52.308;19.096;2023-03-01T01:21:18;46.95;;;19.45;;
43184;SDS011;28803;52.308;19.096;2023-03-01T01:23:48;50.72;;;21.95;;
43184;SDS011;28803;52.308;19.096;2023-03-01T01:26:16;42.17;;;19.13;;
43184;SDS011;28803;52.308;19.096;2023-03-01T01:28:46;51.28;;;20.70;;
43184;SDS011;28803;52.308;19.096;2023-03-01T01:31:13;49.92;;;21.95;;
43184;SDS011;28803;52.308;19.096;2023-03-01T01:33:41;48.90;;;21.85;;
43184;SDS011;28803;52.308;19.096;2023-03-01T01:36:08;58.92;;;23.13;;
43184;SDS011;28803;52.308;19.096;2023-03-01T01:38:37;55.47;;;22.08;;
43184;SDS011;28803;52.308;19.096;2023-03-01T01:41:05;56.78;;;20.73;;
43184;SDS011;28803;52.308;19.096;2023-03-01T01:43:34;53.03;;;20.20;;
43184;SDS011;28803;52.308;19.096;2023-03-01T01:46:07;51.38;;;20.83;;
43184;SDS011;28803;52.308;19.096;2023-03-01T01:48:50;58.17;;;20.90;;
43184;SDS011;28803;52.308;19.096;2023-03-01T01:51:23;56.05;;;23.88;;
43184;SDS011;28803;52.308;19.096;2023-03-01T01:53:57;58.05;;;21.48;;
43184;SDS011;28803;52.308;19.096;2023-03-01T01:56:27;57.10;;;23.35;;
43184;SDS011;28803;52.308;19.096;2023-03-01T01:58:56;68.28;;;24.10;;
43184;SDS011;28803;52.308;19.096;2023-03-01T02:01:24;58.60;;;23.27;;
43184;SDS011;28803;52.308;19.096;2023-03-01T02:03:51;55.78;;;22.75;;
43184;SDS011;28803;52.308;19.096;2023-03-01T02:06:26;63.53;;;24.77;;
43184;SDS011;28803;52.308;19.096;2023-03-01T02:08:59;61.50;;;25.50;;
43184;SDS011;28803;52.308;19.096;2023-03-01T02:11:29;60.88;;;23.75;;
43184;SDS011;28803;52.308;19.096;2023-03-01T02:13:58;59.45;;;24.17;;
43184;SDS011;28803;52.308;19.096;2023-03-01T02:16:25;66.80;;;24.50;;
43184;SDS011;28803;52.308;19.096;2023-03-01T02:18:53;59.40;;;21.60;;
43184;SDS011;28803;52.308;19.096;2023-03-01T02:21:32;59.88;;;22.65;;
43184;SDS011;28803;52.308;19.096;2023-03-01T02:24:57;56.05;;;21.33;;
43184;SDS011;28803;52.308;19.096;2023-03-01T02:27:18;52.42;;;22.33;;
43184;SDS011;28803;52.308;19.096;2023-03-01T02:29:48;46.10;;;20.73;;
43184;SDS011;28803;52.308;19.096;2023-03-01T02:32:15;61.97;;;22.25;;
43184;SDS011;28803;52.308;19.096;2023-03-01T02:34:53;48.03;;;18.23;;
43184;SDS011;28803;52.308;19.096;2023-03-01T02:37:21;44.28;;;19.55;;
43184;SDS011;28803;52.308;19.096;2023-03-01T02:39:58;54.08;;;20.83;;
43184;SDS011;28803;52.308;19.096;2023-03-01T02:42:33;52.15;;;21.10;;
43184;SDS011;28803;52.308;19.096;2023-03-01T02:45:07;61.88;;;22.15;;
43184;SDS011;28803;52.308;19.096;2023-03-01T02:47:36;50.65;;;18.98;;
43184;SDS011;28803;52.308;19.096;2023-03-01T02:50:10;51.67;;;19.35;;
43184;SDS011;28803;52.308;19.096;2023-03-01T02:53:01;51.15;;;20.27;;
43184;SDS011;28803;52.308;19.096;2023-03-01T02:55:39;51.50;;;19.15;;
43184;SDS011;28803;52.308;19.096;2023-03-01T02:58:07;47.75;;;20.02;;
43184;SDS011;28803;52.308;19.096;2023-03-01T03:00:41;50.70;;;18.88;;
43184;SDS011;28803;52.308;19.096;2023-03-01T03:03:13;46.65;;;18.75;;
43184;SDS011;28803;52.308;19.096;2023-03-01T03:05:41;48.33;;;19.27;;
43184;SDS011;28803;52.308;19.096;2023-03-01T03:08:09;54.70;;;20.35;;
43184;SDS011;28803;52.308;19.096;2023-03-01T03:10:38;50.88;;;21.80;;
43184;SDS011;28803;52.308;19.096;2023-03-01T03:13:07;49.65;;;21.00;;
43184;SDS011;28803;52.308;19.096;2023-03-01T03:15:40;51.70;;;20.52;;
43184;SDS011;28803;52.308;19.096;2023-03-01T03:18:10;53.63;;;22.42;;
43184;SDS011;28803;52.308;19.096;2023-03-01T03:20:40;135.93;;;37.03;;
43184;SDS011;28803;52.308;19.096;2023-03-01T03:23:08;147.07;;;42.42;;
43184;SDS011;28803;52.308;19.096;2023-03-01T03:25:36;82.57;;;30.10;;
43184;SDS011;28803;52.308;19.096;2023-03-01T03:28:04;70.82;;;25.80;;
43184;SDS011;28803;52.308;19.096;2023-03-01T03:30:38;55.67;;;23.30;;
43184;SDS011;28803;52.308;19.096;2023-03-01T03:33:07;55.83;;;21.33;;
43184;SDS011;28803;52.308;19.096;2023-03-01T03:35:48;48.78;;;20.33;;
43184;SDS011;28803;52.308;19.096;2023-03-01T03:38:18;49.00;;;19.33;;
43184;SDS011;28803;52.308;19.096;2023-03-01T03:40:47;53.47;;;19.90;;
43184;SDS011;28803;52.308;19.096;2023-03-01T03:43:29;52.57;;;20.77;;
43184;SDS011;28803;52.308;19.096;2023-03-01T03:45:58;57.45;;;21.17;;
43184;SDS011;28803;52.308;19.096;2023-03-01T03:48:26;56.40;;;22.10;;
43184;SDS011;28803;52.308;19.096;2023-03-01T03:50:54;52.33;;;20.70;;
43184;SDS011;28803;52.308;19.096;2023-03-01T03:53:23;54.58;;;20.98;;
43184;SDS011;28803;52.308;19.096;2023-03-01T03:55:52;50.17;;;19.08;;
43184;SDS011;28803;52.308;19.096;2023-03-01T03:58:21;47.90;;;19.73;;
43184;SDS011;28803;52.308;19.096;2023-03-01T04:00:50;50.17;;;22.13;;
43184;SDS011;28803;52.308;19.096;2023-03-01T04:03:20;55.38;;;21.77;;
43184;SDS011;28803;52.308;19.096;2023-03-01T04:05:47;52.10;;;21.30;;
43184;SDS011;28803;52.308;19.096;2023-03-01T04:08:20;52.42;;;21.88;;
43184;SDS011;28803;52.308;19.096;2023-03-01T04:10:50;51.65;;;19.77;;
43184;SDS011;28803;52.308;19.096;2023-03-01T04:13:20;49.05;;;20.40;;
43184;SDS011;28803;52.308;19.096;2023-03-01T04:15:52;52.00;;;21.80;;
43184;SDS011;28803;52.308;19.096;2023-03-01T04:18:20;60.17;;;21.98;;
43184;SDS011;28803;52.308;19.096;2023-03-01T04:20:49;55.97;;;22.08;;
43184;SDS011;28803;52.308;19.096;2023-03-01T04:23:19;57.20;;;22.63;;
43184;SDS011;28803;52.308;19.096;2023-03-01T04:28:25;53.78;;;22.45;;
43184;SDS011;28803;52.308;19.096;2023-03-01T04:31:04;65.30;;;22.50;;
43184;SDS011;28803;52.308;19.096;2023-03-01T04:33:50;61.58;;;22.98;;
43184;SDS011;28803;52.308;19.096;2023-03-01T04:36:21;71.72;;;25.40;;
43184;SDS011;28803;52.308;19.096;2023-03-01T04:38:51;62.20;;;25.98;;
43184;SDS011;28803;52.308;19.096;2023-03-01T04:41:20;55.97;;;23.63;;
43184;SDS011;28803;52.308;19.096;2023-03-01T04:43:48;66.82;;;23.50;;
43184;SDS011;28803;52.308;19.096;2023-03-01T04:46:17;59.63;;;22.75;;
43184;SDS011;28803;52.308;19.096;2023-03-01T04:48:46;63.30;;;24.48;;
43184;SDS011;28803;52.308;19.096;2023-03-01T04:51:14;61.42;;;25.67;;
43184;SDS011;28803;52.308;19.096;2023-03-01T04:53:42;59.22;;;25.77;;
43184;SDS011;28803;52.308;19.096;2023-03-01T04:56:10;57.55;;;25.13;;
43184;SDS011;28803;52.308;19.096;2023-03-01T04:58:40;60.05;;;25.23;;
43184;SDS011;28803;52.308;19.096;2023-03-01T05:01:12;64.88;;;24.70;;
43184;SDS011;28803;52.308;19.096;2023-03-01T05:03:44;60.25;;;25.52;;
43184;SDS011;28803;52.308;19.096;2023-03-01T05:06:13;56.38;;;24.38;;
43184;SDS011;28803;52.308;19.096;2023-03-01T05:08:41;55.28;;;23.33;;
43184;SDS011;28803;52.308;19.096;2023-03-01T05:11:10;60.70;;;24.48;;
43184;SDS011;28803;52.308;19.096;2023-03-01T05:13:38;63.40;;;25.13;;
43184;SDS011;28803;52.308;19.096;2023-03-01T05:16:06;59.90;;;23.25;;
43184;SDS011;28803;52.308;19.096;2023-03-01T05:18:38;62.35;;;25.98;;
43184;SDS011;28803;52.308;19.096;2023-03-01T05:21:07;62.85;;;25.48;;
43184;SDS011;28803;52.308;19.096;2023-03-01T05:23:38;64.03;;;24.17;;
43184;SDS011;28803;52.308;19.096;2023-03-01T05:26:06;62.55;;;24.77;;
43184;SDS011;28803;52.308;19.096;2023-03-01T05:28:47;63.17;;;26.92;;
43184;SDS011;28803;52.308;19.096;2023-03-01T05:31:15;60.97;;;25.77;;
43184;SDS011;28803;52.308;19.096;2023-03-01T05:33:42;63.28;;;24.40;;
43184;SDS011;28803;52.308;19.096;2023-03-01T05:36:09;71.85;;;25.90;;
43184;SDS011;28803;52.308;19.096;2023-03-01T05:38:37;63.00;;;25.67;;
43184;SDS011;28803;52.308;19.096;2023-03-01T05:41:04;56.22;;;25.77;;
43184;SDS011;28803;52.308;19.096;2023-03-01T05:43:31;68.90;;;26.88;;
43184;SDS011;28803;52.308;19.096;2023-03-01T05:46:02;69.40;;;27.65;;
43184;SDS011;28803;52.308;19.096;2023-03-01T05:48:29;64.45;;;27.25;;
43184;SDS011;28803;52.308;19.096;2023-03-01T05:50:58;68.88;;;28.23;;
43184;SDS011;28803;52.308;19.096;2023-03-01T05:53:27;63.28;;;25.35;;
43184;SDS011;28803;52.308;19.096;2023-03-01T05:55:54;60.10;;;24.58;;
43184;SDS011;28803;52.308;19.096;2023-03-01T05:58:21;62.90;;;24.52;;
43184;SDS011;28803;52.308;19.096;2023-03-01T06:00:48;63.78;;;24.58;;
43184;SDS011;28803;52.308;19.096;2023-03-01T06:03:18;59.25;;;24.88;;
43184;SDS011;28803;52.308;19.096;2023-03-01T06:05:45;65.13;;;26.73;;
43184;SDS011;28803;52.308;19.096;2023-03-01T06:08:13;62.25;;;23.83;;
43184;SDS011;28803;52.308;19.096;2023-03-01T06:10:40;84.05;;;26.70;;
43184;SDS011;28803;52.308;19.096;2023-03-01T06:13:08;66.95;;;27.08;;
43184;SDS011;28803;52.308;19.096;2023-03-01T06:15:35;68.40;;;26.65;;
43184;SDS011;28803;52.308;19.096;2023-03-01T06:18:02;68.32;;;25.70;;
43184;SDS011;28803;52.308;19.096;2023-03-01T06:20:29;64.97;;;26.20;;
43184;SDS011;28803;52.308;19.096;2023-03-01T06:22:57;64.63;;;26.73;;
43184;SDS011;28803;52.308;19.096;2023-03-01T06:25:25;59.25;;;24.85;;
43184;SDS011;28803;52.308;19.096;2023-03-01T06:27:53;61.47;;;26.17;;
43184;SDS011;28803;52.308;19.096;2023-03-01T06:30:21;63.08;;;26.38;;
43184;SDS011;28803;52.308;19.096;2023-03-01T06:32:50;65.30;;;26.95;;
43184;SDS011;28803;52.308;19.096;2023-03-01T06:35:18;70.15;;;26.73;;
43184;SDS011;28803;52.308;19.096;2023-03-01T06:37:47;65.07;;;27.67;;
43184;SDS011;28803;52.308;19.096;2023-03-01T06:40:14;60.25;;;23.70;;
43184;SDS011;28803;52.308;19.096;2023-03-01T06:42:43;50.88;;;21.85;;
43184;SDS011;28803;52.308;19.096;2023-03-01T06:45:15;58.53;;;24.65;;
43184;SDS011;28803;52.308;19.096;2023-03-01T06:47:44;53.05;;;21.48;;
43184;SDS011;28803;52.308;19.096;2023-03-01T06:50:12;58.85;;;23.50;;
43184;SDS011;28803;52.308;19.096;2023-03-01T06:52:41;55.72;;;22.63;;
43184;SDS011;28803;52.308;19.096;2023-03-01T06:55:10;59.40;;;24.90;;
43184;SDS011;28803;52.308;19.096;2023-03-01T06:57:39;63.95;;;28.25;;
43184;SDS011;28803;52.308;19.096;2023-03-01T07:00:06;55.80;;;21.95;;
43184;SDS011;28803;52.308;19.096;2023-03-01T07:02:35;58.35;;;21.35;;
43184;SDS011;28803;52.308;19.096;2023-03-01T07:05:02;52.08;;;19.52;;
43184;SDS011;28803;52.308;19.096;2023-03-01T07:07:29;52.97;;;21.80;;
43184;SDS011;28803;52.308;19.096;2023-03-01T07:09:56;57.22;;;21.30;;
43184;SDS011;28803;52.308;19.096;2023-03-01T07:12:24;48.55;;;21.10;;
43184;SDS011;28803;52.308;19.096;2023-03-01T07:14:51;55.67;;;21.05;;
43184;SDS011;28803;52.308;19.096;2023-03-01T07:17:19;50.92;;;19.63;;
43184;SDS011;28803;52.308;19.096;2023-03-01T07:19:46;42.08;;;18.23;;
43184;SDS011;28803;52.308;19.096;2023-03-01T07:22:13;39.42;;;17.40;;
43184;SDS011;28803;52.308;19.096;2023-03-01T07:24:41;42.45;;;17.65;;
43184;SDS011;28803;52.308;19.096;2023-03-01T07:27:09;42.10;;;17.23;;
43184;SDS011;28803;52.308;19.096;2023-03-01T07:29:36;40.00;;;18.80;;
43184;SDS011;28803;52.308;19.096;2023-03-01T07:32:04;48.13;;;18.65;;
43184;SDS011;28803;52.308;19.096;2023-03-01T07:34:32;47.95;;;16.40;;
43184;SDS011;28803;52.308;19.096;2023-03-01T07:36:59;52.38;;;18.48;;
43184;SDS011;28803;52.308;19.096;2023-03-01T07:39:26;46.78;;;18.42;;
43184;SDS011;28803;52.308;19.096;2023-03-01T07:41:54;41.20;;;16.35;;
43184;SDS011;28803;52.308;19.096;2023-03-01T07:44:21;37.92;;;15.02;;
43184;SDS011;28803;52.308;19.096;2023-03-01T07:46:48;42.60;;;16.85;;
43184;SDS011;28803;52.308;19.096;2023-03-01T07:49:15;44.63;;;16.60;;
43184;SDS011;28803;52.308;19.096;2023-03-01T07:51:43;30.02;;;12.88;;
43184;SDS011;28803;52.308;19.096;2023-03-01T07:54:10;32.42;;;12.52;;
43184;SDS011;28803;52.308;19.096;2023-03-01T07:56:38;32.42;;;14.52;;
43184;SDS011;28803;52.308;19.096;2023-03-01T07:59:04;34.65;;;15.77;;
43184;SDS011;28803;52.308;19.096;2023-03-01T08:01:32;38.88;;;15.65;;
43184;SDS011;28803;52.308;19.096;2023-03-01T08:03:59;32.25;;;14.02;;
43184;SDS011;28803;52.308;19.096;2023-03-01T08:06:26;32.80;;;14.38;;
43184;SDS011;28803;52.308;19.096;2023-03-01T08:08:53;38.97;;;14.23;;
43184;SDS011;28803;52.308;19.096;2023-03-01T08:11:25;36.15;;;14.65;;
43184;SDS011;28803;52.308;19.096;2023-03-01T08:13:54;33.55;;;14.07;;
43184;SDS011;28803;52.308;19.096;2023-03-01T08:16:21;40.63;;;15.73;;
43184;SDS011;28803;52.308;19.096;2023-03-01T08:18:48;35.58;;;14.38;;
43184;SDS011;28803;52.308;19.096;2023-03-01T08:21:16;43.28;;;15.00;;
43184;SDS011;28803;52.308;19.096;2023-03-01T08:23:44;34.00;;;13.07;;
43184;SDS011;28803;52.308;19.096;2023-03-01T08:26:13;33.10;;;12.63;;
43184;SDS011;28803;52.308;19.096;2023-03-01T08:28:41;33.42;;;12.85;;
43184;SDS011;28803;52.308;19.096;2023-03-01T08:31:28;28.45;;;11.43;;
43184;SDS011;28803;52.308;19.096;2023-03-01T08:34:00;34.08;;;13.23;;
43184;SDS011;28803;52.308;19.096;2023-03-01T08:36:30;30.58;;;12.50;;
43184;SDS011;28803;52.308;19.096;2023-03-01T08:39:05;31.48;;;11.98;;
43184;SDS011;28803;52.308;19.096;2023-03-01T08:41:34;26.08;;;9.82;;
43184;SDS011;28803;52.308;19.096;2023-03-01T08:44:01;24.38;;;11.80;;
43184;SDS011;28803;52.308;19.096;2023-03-01T08:46:31;27.60;;;11.02;;
43184;SDS011;28803;52.308;19.096;2023-03-01T08:49:02;24.65;;;11.20;;
43184;SDS011;28803;52.308;19.096;2023-03-01T08:51:38;23.20;;;9.85;;
43184;SDS011;28803;52.308;19.096;2023-03-01T08:54:06;19.55;;;9.50;;
43184;SDS011;28803;52.308;19.096;2023-03-01T08:56:37;21.58;;;9.82;;
43184;SDS011;28803;52.308;19.096;2023-03-01T08:59:05;21.67;;;9.35;;
43184;SDS011;28803;52.308;19.096;2023-03-01T09:01:32;22.13;;;9.07;;
43184;SDS011;28803;52.308;19.096;2023-03-01T09:03:59;20.83;;;8.18;;
43184;SDS011;28803;52.308;19.096;2023-03-01T09:06:29;21.70;;;9.00;;
43184;SDS011;28803;52.308;19.096;2023-03-01T09:08:58;20.95;;;8.68;;
43184;SDS011;28803;52.308;19.096;2023-03-01T09:11:27;16.70;;;6.70;;
43184;SDS011;28803;52.308;19.096;2023-03-01T09:13:55;21.90;;;8.77;;
43184;SDS011;28803;52.308;19.096;2023-03-01T09:16:23;16.02;;;7.55;;
43184;SDS011;28803;52.308;19.096;2023-03-01T09:18:53;18.63;;;10.13;;
43184;SDS011;28803;52.308;19.096;2023-03-01T09:21:22;20.13;;;8.80;;
43184;SDS011;28803;52.308;19.096;2023-03-01T09:24:05;19.27;;;7.60;;
43184;SDS011;28803;52.308;19.096;2023-03-01T09:26:38;18.35;;;8.27;;
43184;SDS011;28803;52.308;19.096;2023-03-01T09:29:05;15.93;;;6.85;;
43184;SDS011;28803;52.308;19.096;2023-03-01T09:31:33;16.05;;;6.82;;
43184;SDS011;28803;52.308;19.096;2023-03-01T09:34:00;18.58;;;6.57;;
43184;SDS011;28803;52.308;19.096;2023-03-01T09:36:28;14.13;;;5.63;;
43184;SDS011;28803;52.308;19.096;2023-03-01T09:38:56;12.18;;;5.32;;
43184;SDS011;28803;52.308;19.096;2023-03-01T09:47:20;12.48;;;4.80;;
43184;SDS011;28803;52.308;19.096;2023-03-01T09:49:57;9.63;;;4.32;;
43184;SDS011;28803;52.308;19.096;2023-03-01T09:55:25;11.48;;;5.60;;
43184;SDS011;28803;52.308;19.096;2023-03-01T09:58:00;15.43;;;5.70;;
43184;SDS011;28803;52.308;19.096;2023-03-01T10:00:48;15.48;;;5.65;;
43184;SDS011;28803;52.308;19.096;2023-03-01T10:03:27;14.68;;;5.75;;
43184;SDS011;28803;52.308;19.096;2023-03-01T10:08:59;14.05;;;5.55;;
43184;SDS011;28803;52.308;19.096;2023-03-01T10:11:32;13.20;;;5.72;;
43184;SDS011;28803;52.308;19.096;2023-03-01T10:22:13;15.52;;;6.75;;
43184;SDS011;28803;52.308;19.096;2023-03-01T10:24:40;21.80;;;8.05;;
43184;SDS011;28803;52.308;19.096;2023-03-01T10:27:09;18.63;;;8.35;;
43184;SDS011;28803;52.308;19.096;2023-03-01T10:32:37;30.48;;;13.25;;
43184;SDS011;28803;52.308;19.096;2023-03-01T10:37:57;23.88;;;11.20;;
43184;SDS011;28803;52.308;19.096;2023-03-01T10:40:30;19.92;;;8.45;;
43184;SDS011;28803;52.308;19.096;2023-03-01T10:42:58;19.88;;;8.30;;
43184;SDS011;28803;52.308;19.096;2023-03-01T10:58:28;18.20;;;7.03;;
43184;SDS011;28803;52.308;19.096;2023-03-01T11:06:37;11.88;;;5.35;;
43184;SDS011;28803;52.308;19.096;2023-03-01T11:11:40;11.85;;;5.13;;
43184;SDS011;28803;52.308;19.096;2023-03-01T11:14:18;14.93;;;5.93;;
43184;SDS011;28803;52.308;19.096;2023-03-01T11:17:00;11.45;;;5.00;;
43184;SDS011;28803;52.308;19.096;2023-03-01T11:19:32;14.45;;;5.68;;
43184;SDS011;28803;52.308;19.096;2023-03-01T11:24:41;11.18;;;4.50;;
43184;SDS011;28803;52.308;19.096;2023-03-01T11:27:30;16.50;;;5.80;;
43184;SDS011;28803;52.308;19.096;2023-03-01T11:30:00;12.98;;;5.97;;
43184;SDS011;28803;52.308;19.096;2023-03-01T11:32:41;11.00;;;4.55;;
43184;SDS011;28803;52.308;19.096;2023-03-01T11:35:30;11.40;;;4.53;;
43184;SDS011;28803;52.308;19.096;2023-03-01T11:40:55;8.85;;;4.00;;
43184;SDS011;28803;52.308;19.096;2023-03-01T11:56:54;9.88;;;4.47;;
43184;SDS011;28803;52.308;19.096;2023-03-01T11:59:42;9.88;;;4.03;;
43184;SDS011;28803;52.308;19.096;2023-03-01T12:07:50;14.07;;;4.20;;
43184;SDS011;28803;52.308;19.096;2023-03-01T12:10:29;11.45;;;4.72;;
43184;SDS011;28803;52.308;19.096;2023-03-01T12:13:27;15.60;;;4.28;;
43184;SDS011;28803;52.308;19.096;2023-03-01T12:22:31;10.55;;;3.63;;
43184;SDS011;28803;52.308;19.096;2023-03-01T12:25:08;8.13;;;3.65;;
43184;SDS011;28803;52.308;19.096;2023-03-01T12:36:07;11.20;;;3.83;;
43184;SDS011;28803;52.308;19.096;2023-03-01T12:49:57;7.93;;;3.97;;
43184;SDS011;28803;52.308;19.096;2023-03-01T12:52:38;12.18;;;4.45;;
43184;SDS011;28803;52.308;19.096;2023-03-01T12:55:44;11.80;;;5.03;;
43184;SDS011;28803;52.308;19.096;2023-03-01T13:01:05;7.63;;;3.72;;
43184;SDS011;28803;52.308;19.096;2023-03-01T13:04:25;12.00;;;4.80;;
43184;SDS011;28803;52.308;19.096;2023-03-01T13:06:52;15.13;;;4.45;;
43184;SDS011;28803;52.308;19.096;2023-03-01T13:11:57;9.25;;;4.03;;
43184;SDS011;28803;52.308;19.096;2023-03-01T13:16:52;10.35;;;4.55;;
43184;SDS011;28803;52.308;19.096;2023-03-01T13:19:23;13.25;;;4.22;;
43184;SDS011;28803;52.308;19.096;2023-03-01T13:21:53;9.27;;;4.05;;
43184;SDS011;28803;52.308;19.096;2023-03-01T13:29:49;11.93;;;4.45;;
43184;SDS011;28803;52.308;19.096;2023-03-01T13:37:47;9.45;;;4.28;;
43184;SDS011;28803;52.308;19.096;2023-03-01T13:42:46;9.18;;;4.18;;
43184;SDS011;28803;52.308;19.096;2023-03-01T13:48:16;9.90;;;4.80;;
43184;SDS011;28803;52.308;19.096;2023-03-01T13:51:00;10.85;;;4.90;;
43184;SDS011;28803;52.308;19.096;2023-03-01T13:53:31;13.15;;;6.63;;
43184;SDS011;28803;52.308;19.096;2023-03-01T13:56:03;11.80;;;5.35;;
43184;SDS011;28803;52.308;19.096;2023-03-01T14:03:53;15.35;;;5.70;;
43184;SDS011;28803;52.308;19.096;2023-03-01T14:06:31;9.93;;;4.82;;
43184;SDS011;28803;52.308;19.096;2023-03-01T14:19:59;9.38;;;4.25;;
43184;SDS011;28803;52.308;19.096;2023-03-01T14:22:34;9.90;;;4.78;;
43184;SDS011;28803;52.308;19.096;2023-03-01T14:25:05;12.27;;;5.53;;
43184;SDS011;28803;52.308;19.096;2023-03-01T14:30:50;10.52;;;5.45;;
43184;SDS011;28803;52.308;19.096;2023-03-01T14:33:40;12.77;;;5.50;;
43184;SDS011;28803;52.308;19.096;2023-03-01T14:36:08;11.98;;;6.22;;
43184;SDS011;28803;52.308;19.096;2023-03-01T14:38:41;12.98;;;5.72;;
43184;SDS011;28803;52.308;19.096;2023-03-01T14:41:12;11.30;;;5.55;;
43184;SDS011;28803;52.308;19.096;2023-03-01T14:43:49;11.15;;;4.35;;
43184;SDS011;28803;52.308;19.096;2023-03-01T14:49:26;10.35;;;5.72;;
43184;SDS011;28803;52.308;19.096;2023-03-01T14:54:31;11.13;;;5.40;;
43184;SDS011;28803;52.308;19.096;2023-03-01T14:57:20;13.70;;;5.30;;
43184;SDS011;28803;52.308;19.096;2023-03-01T14:59:53;10.20;;;4.70;;
43184;SDS011;28803;52.308;19.096;2023-03-01T15:02:24;9.13;;;5.47;;
43184;SDS011;28803;52.308;19.096;2023-03-01T15:04:56;13.45;;;5.38;;
43184;SDS011;28803;52.308;19.096;2023-03-01T15:07:31;13.88;;;5.88;;
43184;SDS011;28803;52.308;19.096;2023-03-01T15:10:02;15.48;;;7.57;;
43184;SDS011;28803;52.308;19.096;2023-03-01T15:12:35;15.48;;;6.95;;
43184;SDS011;28803;52.308;19.096;2023-03-01T15:15:50;13.75;;;6.82;;
43184;SDS011;28803;52.308;19.096;2023-03-01T15:17:57;20.05;;;7.28;;
43184;SDS011;28803;52.308;19.096;2023-03-01T15:20:26;16.83;;;7.00;;
43184;SDS011;28803;52.308;19.096;2023-03-01T15:22:56;16.08;;;6.60;;
43184;SDS011;28803;52.308;19.096;2023-03-01T15:25:25;15.98;;;6.55;;
43184;SDS011;28803;52.308;19.096;2023-03-01T15:27:54;16.55;;;6.47;;
43184;SDS011;28803;52.308;19.096;2023-03-01T15:30:33;15.32;;;6.80;;
43184;SDS011;28803;52.308;19.096;2023-03-01T15:33:18;17.90;;;6.00;;
43184;SDS011;28803;52.308;19.096;2023-03-01T15:35:49;20.13;;;8.73;;
43184;SDS011;28803;52.308;19.096;2023-03-01T15:44:00;17.63;;;8.07;;
43184;SDS011;28803;52.308;19.096;2023-03-01T15:46:55;24.92;;;9.15;;
43184;SDS011;28803;52.308;19.096;2023-03-01T15:49:39;24.27;;;9.68;;
43184;SDS011;28803;52.308;19.096;2023-03-01T15:52:25;18.85;;;8.30;;
43184;SDS011;28803;52.308;19.096;2023-03-01T15:54:58;18.23;;;8.40;;
43184;SDS011;28803;52.308;19.096;2023-03-01T15:57:27;19.48;;;8.20;;
43184;SDS011;28803;52.308;19.096;2023-03-01T15:59:55;21.00;;;9.15;;
43184;SDS011;28803;52.308;19.096;2023-03-01T16:02:23;14.63;;;6.68;;
43184;SDS011;28803;52.308;19.096;2023-03-01T16:04:51;13.30;;;6.35;;
43184;SDS011;28803;52.308;19.096;2023-03-01T16:07:20;18.65;;;6.68;;
43184;SDS011;28803;52.308;19.096;2023-03-01T16:09:47;12.27;;;6.03;;
43184;SDS011;28803;52.308;19.096;2023-03-01T16:12:15;20.35;;;6.82;;
43184;SDS011;28803;52.308;19.096;2023-03-01T16:14:43;17.77;;;7.45;;
43184;SDS011;28803;52.308;19.096;2023-03-01T16:17:10;21.02;;;8.73;;
43184;SDS011;28803;52.308;19.096;2023-03-01T16:19:38;22.90;;;9.52;;
43184;SDS011;28803;52.308;19.096;2023-03-01T16:22:05;29.83;;;11.00;;
43184;SDS011;28803;52.308;19.096;2023-03-01T16:24:32;28.70;;;11.13;;
43184;SDS011;28803;52.308;19.096;2023-03-01T16:26:59;33.05;;;13.07;;
43184;SDS011;28803;52.308;19.096;2023-03-01T16:29:27;33.83;;;14.30;;
43184;SDS011;28803;52.308;19.096;2023-03-01T16:31:55;51.67;;;20.40;;
43184;SDS011;28803;52.308;19.096;2023-03-01T16:34:23;35.20;;;15.13;;
43184;SDS011;28803;52.308;19.096;2023-03-01T16:36:50;48.80;;;17.88;;
43184;SDS011;28803;52.308;19.096;2023-03-01T16:39:17;51.40;;;15.73;;
43184;SDS011;28803;52.308;19.096;2023-03-01T16:41:44;75.22;;;25.67;;
43184;SDS011;28803;52.308;19.096;2023-03-01T16:44:11;110.85;;;30.33;;
43184;SDS011;28803;52.308;19.096;2023-03-01T16:46:38;134.30;;;42.90;;
43184;SDS011;28803;52.308;19.096;2023-03-01T16:49:08;137.20;;;55.28;;
43184;SDS011;28803;52.308;19.096;2023-03-01T16:51:35;138.45;;;56.58;;
43184;SDS011;28803;52.308;19.096;2023-03-01T16:54:03;149.93;;;63.38;;
43184;SDS011;28803;52.308;19.096;2023-03-01T16:56:31;109.97;;;47.30;;
43184;SDS011;28803;52.308;19.096;2023-03-01T16:59:01;85.55;;;35.47;;
43184;SDS011;28803;52.308;19.096;2023-03-01T17:01:31;63.00;;;29.00;;
43184;SDS011;28803;52.308;19.096;2023-03-01T17:04:06;46.85;;;20.60;;
43184;SDS011;28803;52.308;19.096;2023-03-01T17:06:36;40.38;;;17.13;;
43184;SDS011;28803;52.308;19.096;2023-03-01T17:09:03;38.83;;;16.38;;
43184;SDS011;28803;52.308;19.096;2023-03-01T17:11:30;53.97;;;20.90;;